createdAt,value
2023-04-22T00:01:56.856Z,0.40
2023-04-22T00:04:25.275Z,0.60
2023-04-22T00:06:53.049Z,1.07
2023-04-22T00:09:22.388Z,0.50
2023-04-22T00:11:49.987Z,0.50
2023-04-22T00:14:17.857Z,0.53
2023-04-22T00:16:45.533Z,0.30
2023-04-22T00:19:13.668Z,0.63
2023-04-22T00:21:41.268Z,0.40
2023-04-22T00:24:09.164Z,0.70
2023-04-22T00:26:38.176Z,0.30
2023-04-22T00:29:06.058Z,0.30
2023-04-22T00:31:33.751Z,0.97
2023-04-22T00:34:01.810Z,0.50
2023-04-22T00:36:29.555Z,0.40
2023-04-22T00:38:57.598Z,0.23
2023-04-22T00:41:25.964Z,0.73
2023-04-22T00:43:55.754Z,0.40
2023-04-22T00:46:23.370Z,0.70
2023-04-22T00:48:51.861Z,0.93
2023-04-22T00:51:19.512Z,1.43
2023-04-22T00:53:47.440Z,1.00
2023-04-22T00:56:15.262Z,1.67
2023-04-22T00:58:43.187Z,0.73
2023-04-22T01:01:12.516Z,0.70
2023-04-22T01:03:41.923Z,0.43
2023-04-22T01:06:09.788Z,0.37
2023-04-22T01:08:37.761Z,0.43
2023-04-22T01:11:05.590Z,0.87
2023-04-22T01:13:33.687Z,0.70
2023-04-22T01:16:02.606Z,0.97
2023-04-22T01:18:32.459Z,0.67
2023-04-22T01:21:00.068Z,1.20
2023-04-22T01:23:29.106Z,0.50
2023-04-22T01:25:57.009Z,0.77
2023-04-22T01:28:25.802Z,0.60
2023-04-22T01:30:53.664Z,0.43
2023-04-22T01:33:21.417Z,0.73
2023-04-22T01:35:49.124Z,0.60
2023-04-22T01:38:16.929Z,0.53
2023-04-22T01:40:45.877Z,2.10
2023-04-22T01:43:13.655Z,0.50
2023-04-22T01:45:41.479Z,0.40
2023-04-22T01:48:09.314Z,0.50
2023-04-22T01:50:38.423Z,0.33
2023-04-22T01:53:08.610Z,0.40
2023-04-22T01:55:37.397Z,0.80
2023-04-22T01:58:06.681Z,1.07
2023-04-22T02:00:34.570Z,0.80
2023-04-22T02:03:02.315Z,0.93
2023-04-22T02:05:30.141Z,1.83
2023-04-22T02:07:58.254Z,0.43
2023-04-22T02:10:26.068Z,1.33
2023-04-22T02:12:53.689Z,1.10
2023-04-22T02:15:22.941Z,1.67
2023-04-22T02:17:54.091Z,1.00
2023-04-22T02:20:22.031Z,0.93
2023-04-22T02:22:50.677Z,0.90
2023-04-22T02:25:21.035Z,1.40
2023-04-22T02:27:50.576Z,0.97
2023-04-22T02:30:18.583Z,0.90
2023-04-22T02:32:47.602Z,0.70
2023-04-22T02:35:15.491Z,0.60
2023-04-22T02:37:43.081Z,0.43
2023-04-22T02:40:11.900Z,0.60
2023-04-22T02:42:39.490Z,0.70
2023-04-22T02:45:08.192Z,0.63
2023-04-22T02:47:36.581Z,0.70
2023-04-22T02:50:08.294Z,1.13
2023-04-22T02:52:35.953Z,0.80
2023-04-22T02:55:03.804Z,0.90
2023-04-22T02:57:31.564Z,0.50
2023-04-22T02:59:59.408Z,0.97
2023-04-22T03:02:27.428Z,0.40
2023-04-22T03:05:26.060Z,0.80
2023-04-22T03:07:54.320Z,0.90
2023-04-22T03:10:22.858Z,0.70
2023-04-22T03:12:51.604Z,1.13
2023-04-22T03:15:21.638Z,1.23
2023-04-22T03:17:49.693Z,0.60
2023-04-22T03:20:19.133Z,1.17
2023-04-22T03:22:48.144Z,0.80
2023-04-22T03:25:17.573Z,0.80
2023-04-22T03:27:53.177Z,0.90
2023-04-22T03:30:21.151Z,0.70
2023-04-22T03:32:49.015Z,1.10
2023-04-22T03:35:21.296Z,0.80
2023-04-22T03:37:52.217Z,1.20
2023-04-22T03:40:25.485Z,0.90
2023-04-22T03:42:54.292Z,1.07
2023-04-22T03:45:23.221Z,0.83
2023-04-22T03:48:13.775Z,1.97
2023-04-22T03:50:47.307Z,1.43
2023-04-22T03:53:17.899Z,1.27
2023-04-22T03:55:46.171Z,1.20
2023-04-22T03:58:15.744Z,1.57
2023-04-22T04:00:43.813Z,1.37
2023-04-22T04:03:16.430Z,2.37
2023-04-22T04:05:47.403Z,1.20
2023-04-22T04:08:16.733Z,2.07
2023-04-22T04:10:44.990Z,2.83
2023-04-22T04:13:14.114Z,1.50
2023-04-22T04:15:53.708Z,1.30
2023-04-22T04:18:21.526Z,1.13
2023-04-22T04:20:50.186Z,1.23
2023-04-22T04:23:19.368Z,0.80
2023-04-22T04:25:48.363Z,0.80
2023-04-22T04:28:17.528Z,0.83
2023-04-22T04:30:45.471Z,0.60
2023-04-22T04:33:13.271Z,0.90
2023-04-22T04:35:44.768Z,0.70
2023-04-22T04:38:16.591Z,0.60
2023-04-22T04:40:46.171Z,0.40
2023-04-22T04:43:18.567Z,2.40
2023-04-22T04:45:58.782Z,0.97
2023-04-22T04:48:35.889Z,0.83
2023-04-22T04:51:07.882Z,1.00
2023-04-22T04:53:41.151Z,0.53
2023-04-22T04:56:10.194Z,0.90
2023-04-22T04:58:38.134Z,0.90
2023-04-22T05:01:19.946Z,0.97
2023-04-22T05:03:48.962Z,0.90
2023-04-22T05:06:18.844Z,1.30
2023-04-22T05:09:03.669Z,1.87
2023-04-22T05:11:33.010Z,2.03
2023-04-22T05:14:03.915Z,1.57
2023-04-22T05:16:35.896Z,1.30
2023-04-22T05:19:04.688Z,1.67
2023-04-22T05:21:34.248Z,1.77
2023-04-22T05:24:01.926Z,1.80
2023-04-22T05:26:30.880Z,1.57
2023-04-22T05:29:00.174Z,2.53
2023-04-22T05:31:29.173Z,1.93
2023-04-22T05:33:57.667Z,1.77
2023-04-22T05:36:30.558Z,1.60
2023-04-22T05:38:59.164Z,1.53
2023-04-22T05:41:27.263Z,1.57
2023-04-22T05:43:56.938Z,1.07
2023-04-22T05:46:27.162Z,2.37
2023-04-22T05:48:56.388Z,1.00
2023-04-22T05:51:59.526Z,1.77
2023-04-22T05:54:34.488Z,1.40
2023-04-22T05:57:03.610Z,1.73
2023-04-22T05:59:31.505Z,1.60
2023-04-22T06:02:00.988Z,1.20
2023-04-22T06:04:28.802Z,1.40
2023-04-22T06:06:57.347Z,1.20
2023-04-22T06:09:25.068Z,0.90
2023-04-22T06:11:52.779Z,1.40
2023-04-22T06:14:20.499Z,1.70
2023-04-22T06:16:50.311Z,1.80
2023-04-22T06:19:19.491Z,1.57
2023-04-22T06:21:47.341Z,1.70
2023-04-22T06:24:16.124Z,2.23
2023-04-22T06:26:45.551Z,1.40
2023-04-22T06:29:13.237Z,1.77
2023-04-22T06:31:41.654Z,1.63
2023-04-22T06:34:09.278Z,1.43
2023-04-22T06:36:38.332Z,1.77
2023-04-22T06:39:07.412Z,1.47
2023-04-22T06:41:53.772Z,2.13
2023-04-22T06:44:41.654Z,1.43
2023-04-22T06:47:18.876Z,1.50
2023-04-22T06:49:54.250Z,1.07
2023-04-22T06:52:30.614Z,1.90
2023-04-22T06:54:59.855Z,1.70
2023-04-22T06:57:27.526Z,1.73
2023-04-22T06:59:55.312Z,1.57
2023-04-22T07:02:25.030Z,1.20
2023-04-22T07:04:52.635Z,1.43
2023-04-22T07:07:20.472Z,2.23
2023-04-22T07:09:49.457Z,1.97
2023-04-22T07:12:17.293Z,0.80
2023-04-22T07:14:45.803Z,1.97
2023-04-22T07:17:13.831Z,1.00
2023-04-22T07:19:41.707Z,0.60
2023-04-22T07:22:09.628Z,1.70
2023-04-22T07:24:37.476Z,1.20
2023-04-22T07:27:06.561Z,1.10
2023-04-22T07:29:34.180Z,0.90
2023-04-22T07:32:02.255Z,0.90
2023-04-22T07:34:29.899Z,1.17
2023-04-22T07:36:57.802Z,1.13
2023-04-22T07:39:25.522Z,1.43
2023-04-22T07:41:53.214Z,1.30
2023-04-22T07:44:22.284Z,1.00
2023-04-22T07:46:50.601Z,1.37
2023-04-22T07:49:18.274Z,1.40
2023-04-22T07:51:46.068Z,1.20
2023-04-22T07:54:13.744Z,1.00
2023-04-22T07:56:41.458Z,0.80
2023-04-22T07:59:09.226Z,1.13
2023-04-22T08:01:38.233Z,1.47
2023-04-22T08:04:06.402Z,1.20
2023-04-22T08:06:34.620Z,1.13
2023-04-22T08:09:02.226Z,1.27
2023-04-22T08:11:29.834Z,1.13
2023-04-22T08:13:57.533Z,2.20
2023-04-22T08:16:25.197Z,1.87
2023-04-22T08:18:56.312Z,1.03
2023-04-22T08:21:24.182Z,1.63
2023-04-22T08:23:52.156Z,0.80
2023-04-22T08:26:19.799Z,1.50
2023-04-22T08:28:47.810Z,1.23
2023-04-22T08:31:15.462Z,1.00
2023-04-22T08:33:43.281Z,0.40
2023-04-22T08:36:12.279Z,0.33
2023-04-22T08:38:40.046Z,1.27
2023-04-22T08:41:08.008Z,0.50
2023-04-22T08:43:36.531Z,0.60
2023-04-22T08:46:04.242Z,0.63
2023-04-22T08:48:33.417Z,0.50
2023-04-22T08:51:01.532Z,0.90
2023-04-22T08:53:30.652Z,1.03
2023-04-22T08:55:58.537Z,1.47
2023-04-22T08:58:26.448Z,1.00
2023-04-22T09:00:54.396Z,0.60
2023-04-22T09:03:23.259Z,0.83
2023-04-22T09:05:52.851Z,0.50
2023-04-22T09:08:21.101Z,0.80
2023-04-22T09:10:50.236Z,0.57
2023-04-22T09:13:18.669Z,0.83
2023-04-22T09:15:46.396Z,0.40
2023-04-22T09:18:17.956Z,1.07
2023-04-22T09:20:48.024Z,1.10
2023-04-22T09:23:16.372Z,0.60
2023-04-22T09:25:46.462Z,0.73
2023-04-22T09:28:19.557Z,0.30
2023-04-22T09:30:48.280Z,0.40
2023-04-22T09:33:17.277Z,0.50
2023-04-22T09:35:45.345Z,0.70
2023-04-22T09:38:13.956Z,0.40
2023-04-22T09:40:44.308Z,0.30
2023-04-22T09:43:12.706Z,0.30
2023-04-22T09:45:43.563Z,0.50
2023-04-22T09:48:12.992Z,0.20
2023-04-22T09:50:44.426Z,0.30
2023-04-22T09:53:15.039Z,1.00
2023-04-22T09:55:45.595Z,0.40
2023-04-22T09:58:15.148Z,0.22
2023-04-22T10:00:45.600Z,0.52
2023-04-22T10:03:13.324Z,0.20
2023-04-22T10:05:41.451Z,0.22
2023-04-22T10:08:10.807Z,0.32
2023-04-22T10:10:39.537Z,0.20
2023-04-22T10:13:07.805Z,0.57
2023-04-22T10:15:37.506Z,0.70
2023-04-22T10:18:09.509Z,0.50
2023-04-22T10:20:38.779Z,0.47
2023-04-22T10:23:07.492Z,0.45
2023-04-22T10:25:35.174Z,0.47
2023-04-22T10:28:04.001Z,0.65
2023-04-22T10:30:34.413Z,0.40
2023-04-22T10:33:39.096Z,0.50
2023-04-22T10:36:09.027Z,0.38
2023-04-22T10:38:37.274Z,0.50
2023-04-22T10:41:05.228Z,0.32
2023-04-22T10:43:43.250Z,0.30
2023-04-22T10:46:45.350Z,0.45
2023-04-22T10:49:16.447Z,0.30
2023-04-22T10:51:46.515Z,0.52
2023-04-22T10:55:01.496Z,0.30
2023-04-22T10:57:40.496Z,0.70
2023-04-22T11:00:27.009Z,2.22
2023-04-22T11:03:07.727Z,0.30
2023-04-22T11:05:37.521Z,0.40
2023-04-22T11:08:07.477Z,0.30
2023-04-22T11:10:42.975Z,2.15
2023-04-22T11:13:13.864Z,0.32
2023-04-22T11:15:43.368Z,0.32
2023-04-22T11:18:14.711Z,0.20
2023-04-22T11:20:45.066Z,0.90
2023-04-22T11:23:12.654Z,0.50
2023-04-22T11:25:40.232Z,0.20
2023-04-22T11:28:07.824Z,0.55
2023-04-22T11:30:35.967Z,0.40
2023-04-22T11:33:03.667Z,0.30
2023-04-22T11:35:33.066Z,0.45
2023-04-22T11:38:04.100Z,0.40
2023-04-22T11:40:35.867Z,0.40
2023-04-22T11:43:07.436Z,0.40
2023-04-22T11:45:36.535Z,0.28
2023-04-22T11:48:06.906Z,0.30
2023-04-22T11:50:36.463Z,0.35
2023-04-22T11:53:06.518Z,0.30
2023-04-22T11:55:37.109Z,0.57
2023-04-22T11:58:08.120Z,0.43
2023-04-22T12:00:37.830Z,0.45
2023-04-22T12:03:08.172Z,0.40
2023-04-22T12:05:38.712Z,0.30
2023-04-22T12:08:10.873Z,0.50
2023-04-22T12:10:44.165Z,0.40
2023-04-22T12:13:18.328Z,0.40
2023-04-22T12:15:46.272Z,0.40
2023-04-22T12:18:14.373Z,0.40
2023-04-22T12:20:43.194Z,0.30
2023-04-22T12:23:15.632Z,0.52
2023-04-22T12:25:44.163Z,0.68
2023-04-22T12:28:12.548Z,0.50
2023-04-22T12:30:40.195Z,0.30
2023-04-22T12:33:07.923Z,1.33
2023-04-22T12:35:35.550Z,0.60
2023-04-22T12:38:03.387Z,0.50
2023-04-22T12:40:32.418Z,0.75
2023-04-22T12:43:01.141Z,0.40
2023-04-22T12:45:28.794Z,0.50
2023-04-22T12:47:56.835Z,0.50
2023-04-22T12:50:24.501Z,0.40
2023-04-22T12:52:52.228Z,0.32
2023-04-22T12:55:20.908Z,0.63
2023-04-22T12:57:52.274Z,0.20
2023-04-22T13:00:20.877Z,0.30
2023-04-22T13:02:49.573Z,0.65
2023-04-22T13:05:18.161Z,0.47
2023-04-22T13:07:53.227Z,0.45
2023-04-22T13:10:28.223Z,0.43
2023-04-22T13:13:06.442Z,0.40
2023-04-22T13:15:44.352Z,0.50
2023-04-22T13:18:12.364Z,0.73
2023-04-22T13:20:41.678Z,0.57
2023-04-22T13:23:09.656Z,0.68
2023-04-22T13:25:37.313Z,1.15
2023-04-22T13:28:06.432Z,0.47
2023-04-22T13:30:34.350Z,0.50
2023-04-22T13:33:02.116Z,0.30
2023-04-22T13:35:29.890Z,1.15
2023-04-22T13:37:58.084Z,0.65
2023-04-22T13:40:26.618Z,0.63
2023-04-22T13:42:54.452Z,0.52
2023-04-22T13:45:23.572Z,0.55
2023-04-22T13:47:51.766Z,0.30
2023-04-22T13:50:19.389Z,0.55
2023-04-22T13:52:47.327Z,0.40
2023-04-22T13:55:15.123Z,0.50
2023-04-22T13:57:42.858Z,0.57
2023-04-22T14:00:11.264Z,0.60
2023-04-22T14:02:42.954Z,1.15
2023-04-22T14:05:11.036Z,0.82
2023-04-22T14:07:38.780Z,0.77
2023-04-22T14:10:08.464Z,0.50
2023-04-22T14:12:36.344Z,0.85
2023-04-22T14:15:04.092Z,0.60
2023-04-22T14:17:31.964Z,0.40
2023-04-22T14:20:00.911Z,0.80
2023-04-22T14:22:28.509Z,0.50
2023-04-22T14:24:56.477Z,0.90
2023-04-22T14:27:24.124Z,1.30
2023-04-22T14:29:52.367Z,0.82
2023-04-22T14:32:20.645Z,0.60
2023-04-22T14:34:48.870Z,0.55
2023-04-22T14:37:18.036Z,0.90
2023-04-22T14:39:45.796Z,0.90
2023-04-22T14:42:13.471Z,0.70
2023-04-22T14:44:41.599Z,0.90
2023-04-22T14:47:09.210Z,0.68
2023-04-22T14:49:37.057Z,0.90
2023-04-22T14:52:06.576Z,0.52
2023-04-22T14:54:35.557Z,0.80
2023-04-22T14:57:04.113Z,0.90
2023-04-22T14:59:31.952Z,0.80
2023-04-22T15:01:59.871Z,2.10
2023-04-22T15:04:27.928Z,0.65
2023-04-22T15:06:57.527Z,1.10
2023-04-22T15:09:25.431Z,1.55
2023-04-22T15:11:54.755Z,0.57
2023-04-22T15:14:22.480Z,0.70
2023-04-22T15:16:50.090Z,2.13
2023-04-22T15:19:17.815Z,1.67
2023-04-22T15:21:46.696Z,0.80
2023-04-22T15:24:14.454Z,1.48
2023-04-22T15:26:42.131Z,0.77
2023-04-22T15:29:11.257Z,0.90
2023-04-22T15:31:38.946Z,0.82
2023-04-22T15:34:06.831Z,0.95
2023-04-22T15:36:34.540Z,0.68
2023-04-22T15:39:03.136Z,0.52
2023-04-22T15:41:30.799Z,0.70
2023-04-22T15:43:58.508Z,0.77
2023-04-22T15:46:29.625Z,1.10
2023-04-22T15:48:58.133Z,2.03
2023-04-22T15:51:26.411Z,1.63
2023-04-22T15:53:54.844Z,0.60
2023-04-22T15:56:22.881Z,0.73
2023-04-22T15:58:50.815Z,1.43
2023-04-22T16:01:20.247Z,0.67
2023-04-22T16:03:50.281Z,2.23
2023-04-22T16:06:18.279Z,0.80
2023-04-22T16:08:46.431Z,1.10
2023-04-22T16:11:15.580Z,0.80
2023-04-22T16:13:43.430Z,0.80
2023-04-22T16:16:11.381Z,1.00
2023-04-22T16:18:39.991Z,0.70
2023-04-22T16:21:10.457Z,0.50
2023-04-22T16:23:38.098Z,0.70
2023-04-22T16:26:06.524Z,0.70
2023-04-22T16:28:34.162Z,0.70
2023-04-22T16:31:02.070Z,1.30
2023-04-22T16:33:29.682Z,0.67
2023-04-22T16:35:58.205Z,1.60
2023-04-22T16:38:27.110Z,2.17
2023-04-22T16:40:54.735Z,1.60
2023-04-22T16:43:22.437Z,0.80
2023-04-22T16:45:50.226Z,2.03
2023-04-22T16:48:17.843Z,1.00
2023-04-22T16:50:45.514Z,0.50
2023-04-22T16:53:13.130Z,0.77
2023-04-22T16:55:43.462Z,1.10
2023-04-22T16:58:12.248Z,0.77
2023-04-22T17:00:40.215Z,0.70
2023-04-22T17:03:07.939Z,1.27
2023-04-22T17:05:35.725Z,0.60
2023-04-22T17:08:03.337Z,0.50
2023-04-22T17:10:32.539Z,0.90
2023-04-22T17:13:01.449Z,0.50
2023-04-22T17:15:29.018Z,0.70
2023-04-22T17:17:56.631Z,0.97
2023-04-22T17:20:24.309Z,0.67
2023-04-22T17:22:51.920Z,0.60
2023-04-22T17:25:19.939Z,1.23
2023-04-22T17:27:47.567Z,0.60
2023-04-22T17:30:16.784Z,0.40
2023-04-22T17:32:44.648Z,1.40
2023-04-22T17:35:12.380Z,1.17
2023-04-22T17:37:40.283Z,0.50
2023-04-22T17:40:09.380Z,0.47
2023-04-22T17:42:45.632Z,0.67
2023-04-22T17:45:14.314Z,1.43
2023-04-22T17:47:43.494Z,1.00
2023-04-22T17:50:11.696Z,1.17
2023-04-22T17:52:39.410Z,0.90
2023-04-22T17:55:08.430Z,0.87
2023-04-22T17:57:36.519Z,1.03
2023-04-22T18:00:04.709Z,0.90
2023-04-22T18:02:35.368Z,1.77
2023-04-22T18:05:05.480Z,1.27
2023-04-22T18:07:33.104Z,1.87
2023-04-22T18:10:00.867Z,1.20
2023-04-22T18:12:30.755Z,1.57
2023-04-22T18:14:59.009Z,1.23
2023-04-22T18:17:26.878Z,1.07
2023-04-22T18:20:02.667Z,1.03
2023-04-22T18:22:35.447Z,0.83
2023-04-22T18:25:03.074Z,1.63
2023-04-22T18:27:31.584Z,0.80
2023-04-22T18:29:59.166Z,1.50
2023-04-22T18:32:26.980Z,1.20
2023-04-22T18:34:54.607Z,1.17
2023-04-22T18:37:22.473Z,1.20
2023-04-22T18:39:51.395Z,1.13
2023-04-22T18:42:19.583Z,0.73
2023-04-22T18:44:47.185Z,1.23
2023-04-22T18:47:15.080Z,1.10
2023-04-22T18:49:42.669Z,1.53
2023-04-22T18:52:10.383Z,1.40
2023-04-22T18:54:38.171Z,1.00
2023-04-22T18:57:07.470Z,0.97
2023-04-22T18:59:35.090Z,0.97
2023-04-22T19:02:03.609Z,1.87
2023-04-22T19:04:32.003Z,1.10
2023-04-22T19:06:59.899Z,1.90
2023-04-22T19:09:27.659Z,0.80
2023-04-22T19:11:55.496Z,1.30
2023-04-22T19:14:24.659Z,1.07
2023-04-22T19:16:52.445Z,1.00
2023-04-22T19:19:20.043Z,0.73
2023-04-22T19:21:47.855Z,2.33
2023-04-22T19:24:16.093Z,0.90
2023-04-22T19:26:45.384Z,0.87
2023-04-22T19:29:15.971Z,0.80
2023-04-22T19:31:46.350Z,0.97
2023-04-22T19:34:14.399Z,1.03
2023-04-22T19:36:42.389Z,1.17
2023-04-22T19:39:09.976Z,1.13
2023-04-22T19:41:38.563Z,0.80
2023-04-22T19:44:06.244Z,1.07
2023-04-22T19:46:33.916Z,0.80
2023-04-22T19:49:03.477Z,1.00
2023-04-22T19:51:32.512Z,1.47
2023-04-22T19:54:00.305Z,2.23
2023-04-22T19:56:28.059Z,1.93
2023-04-22T19:58:56.462Z,1.47
2023-04-22T20:01:24.512Z,1.23
2023-04-22T20:03:52.870Z,1.60
2023-04-22T20:06:23.361Z,1.63
2023-04-22T20:08:54.132Z,1.53
2023-04-22T20:11:23.189Z,1.03
2023-04-22T20:13:51.479Z,1.03
2023-04-22T20:16:20.713Z,1.63
2023-04-22T20:18:48.656Z,1.87
2023-04-22T20:21:16.884Z,1.57
2023-04-22T20:23:46.897Z,1.63
2023-04-22T20:26:19.175Z,1.50
2023-04-22T20:28:48.679Z,1.93
2023-04-22T20:31:18.424Z,1.67
2023-04-22T20:33:47.134Z,1.20
2023-04-22T20:36:16.065Z,1.20
2023-04-22T20:38:48.590Z,1.33
2023-04-22T20:41:20.043Z,2.07
2023-04-22T20:43:48.024Z,1.90
2023-04-22T20:46:16.036Z,1.67
2023-04-22T20:48:44.019Z,2.80
2023-04-22T20:51:12.360Z,1.57
2023-04-22T20:53:40.993Z,2.57
2023-04-22T20:56:08.854Z,1.80
2023-04-22T20:58:37.953Z,2.33
2023-04-22T21:01:05.699Z,2.23
2023-04-22T21:03:34.824Z,1.93
2023-04-22T21:06:03.399Z,2.13
2023-04-22T21:08:34.900Z,1.30
2023-04-22T21:11:02.829Z,1.97
2023-04-22T21:13:31.069Z,1.57
2023-04-22T21:16:03.457Z,1.37
2023-04-22T21:18:33.939Z,1.50
2023-04-22T21:21:04.206Z,1.57
2023-04-22T21:23:32.791Z,1.20
2023-04-22T21:26:02.494Z,2.13
2023-04-22T21:28:30.827Z,1.30
2023-04-22T21:31:00.502Z,1.50
2023-04-22T21:33:28.411Z,1.77
2023-04-22T21:35:56.309Z,2.10
2023-04-22T21:38:24.147Z,3.43
2023-04-22T21:40:51.917Z,1.73
2023-04-22T21:43:19.686Z,2.50
2023-04-22T21:45:47.488Z,1.83
2023-04-22T21:48:16.433Z,1.67
2023-04-22T21:50:44.269Z,1.43
2023-04-22T21:53:12.087Z,1.37
2023-04-22T21:55:40.185Z,1.40
2023-04-22T21:58:07.822Z,1.37
2023-04-22T22:00:36.022Z,1.60
2023-04-22T22:03:03.706Z,2.33
2023-04-22T22:05:32.888Z,2.10
2023-04-22T22:08:00.610Z,1.53
2023-04-22T22:10:28.488Z,1.47
2023-04-22T22:12:56.241Z,1.67
2023-04-22T22:15:24.295Z,1.40
2023-04-22T22:17:52.034Z,2.50
2023-04-22T22:20:20.596Z,1.93
2023-04-22T22:22:49.766Z,1.93
2023-04-22T22:25:17.557Z,2.00
2023-04-22T22:27:47.190Z,3.77
2023-04-22T22:30:15.636Z,1.73
2023-04-22T22:32:43.529Z,2.30
2023-04-22T22:35:11.600Z,2.47
2023-04-22T22:37:39.240Z,2.20
2023-04-22T22:40:10.029Z,1.87
2023-04-22T22:42:37.749Z,1.77
2023-04-22T22:45:06.704Z,2.00
2023-04-22T22:47:34.472Z,1.77
2023-04-22T22:50:02.326Z,1.90
2023-04-22T22:52:30.571Z,2.23
2023-04-22T22:54:58.420Z,1.80
2023-04-22T22:57:27.449Z,2.23
2023-04-22T22:59:55.043Z,2.70
2023-04-22T23:02:22.908Z,2.53
2023-04-22T23:04:51.315Z,1.90
2023-04-22T23:07:19.017Z,1.70
2023-04-22T23:09:46.746Z,2.17
2023-04-22T23:12:14.327Z,1.93
2023-04-22T23:14:43.722Z,1.83
2023-04-22T23:17:11.460Z,1.93
2023-04-22T23:19:40.333Z,1.70
2023-04-22T23:22:08.255Z,1.87
2023-04-22T23:24:36.832Z,2.60
2023-04-22T23:27:05.419Z,2.07
2023-04-22T23:29:34.116Z,1.87
2023-04-22T23:32:05.351Z,1.77
2023-04-22T23:34:35.150Z,2.20
2023-04-22T23:37:05.373Z,1.30
2023-04-22T23:39:33.649Z,2.30
2023-04-22T23:42:01.538Z,1.87
2023-04-22T23:44:29.158Z,2.13
2023-04-22T23:46:57.133Z,1.17
2023-04-22T23:49:26.250Z,1.10
2023-04-22T23:51:54.377Z,1.60
2023-04-22T23:54:22.324Z,1.40
2023-04-22T23:56:50.807Z,1.53
2023-04-22T23:59:19.039Z,1.43
